createdAt,value
2017-09-24T00:02:25.277Z,64.70
2017-09-24T00:04:52.762Z,78.97
2017-09-24T00:07:20.236Z,74.33
2017-09-24T00:09:48.481Z,78.43
2017-09-24T00:12:15.949Z,77.20
2017-09-24T00:14:43.447Z,76.47
2017-09-24T00:17:10.931Z,72.97
2017-09-24T00:19:38.445Z,77.60
2017-09-24T00:22:05.902Z,73.23
2017-09-24T00:24:34.167Z,87.97
2017-09-24T00:27:01.701Z,83.93
2017-09-24T00:29:29.128Z,89.27
2017-09-24T00:31:56.611Z,89.17
2017-09-24T00:34:24.080Z,78.87
2017-09-24T00:36:51.556Z,82.40
2017-09-24T00:39:19.793Z,89.60
2017-09-24T00:41:47.293Z,83.53
2017-09-24T00:44:15.528Z,86.83
2017-09-24T00:46:43.030Z,96.93
2017-09-24T00:49:11.271Z,86.60
2017-09-24T00:51:38.748Z,85.63
2017-09-24T00:54:06.217Z,86.10
2017-09-24T00:56:34.454Z,77.13
2017-09-24T00:59:01.937Z,85.87
2017-09-24T01:01:29.426Z,85.80
2017-09-24T01:03:56.988Z,94.80
2017-09-24T01:06:24.452Z,90.50
2017-09-24T01:08:51.949Z,94.67
2017-09-24T01:11:19.412Z,89.20
2017-09-24T01:13:47.076Z,90.30
2017-09-24T01:16:14.586Z,94.67
2017-09-24T01:18:42.093Z,90.27
2017-09-24T01:21:09.813Z,85.90
2017-09-24T01:23:37.309Z,88.67
2017-09-24T01:26:04.933Z,83.67
2017-09-24T01:28:32.415Z,78.90
2017-09-24T01:30:59.887Z,90.87
2017-09-24T01:33:27.374Z,79.10
2017-09-24T01:35:55.615Z,84.33
2017-09-24T01:38:23.097Z,83.10
2017-09-24T01:40:51.551Z,76.77
2017-09-24T01:43:19.013Z,83.57
2017-09-24T01:45:46.495Z,75.37
2017-09-24T01:48:14.721Z,99.97
2017-09-24T01:50:42.209Z,76.43
2017-09-24T01:53:10.442Z,97.80
2017-09-24T01:55:37.931Z,74.53
2017-09-24T01:58:05.650Z,81.90
2017-09-24T02:03:07.865Z,72.53
2017-09-24T02:05:35.413Z,74.83
2017-09-24T02:08:02.896Z,83.50
2017-09-24T02:10:30.372Z,70.23
2017-09-24T02:12:58.663Z,74.93
2017-09-24T02:15:26.133Z,67.30
2017-09-24T02:17:53.605Z,69.23
2017-09-24T02:20:21.066Z,88.73
2017-09-24T02:22:48.550Z,71.30
2017-09-24T02:25:16.468Z,56.17
2017-09-24T02:27:43.957Z,68.47
2017-09-24T02:30:11.436Z,81.27
2017-09-24T02:32:38.919Z,80.07
2017-09-24T02:35:07.161Z,76.33
2017-09-24T02:37:34.837Z,85.53
2017-09-24T02:40:02.381Z,82.30
2017-09-24T02:42:30.623Z,87.77
2017-09-24T02:44:58.170Z,89.97
2017-09-24T02:47:25.639Z,94.30
2017-09-24T02:49:53.142Z,104.63
2017-09-24T02:52:20.616Z,101.40
2017-09-24T02:54:48.866Z,103.80
2017-09-24T02:57:16.542Z,98.87
2017-09-24T02:59:44.035Z,98.33
2017-09-24T03:02:11.585Z,113.27
2017-09-24T03:04:39.275Z,116.60
2017-09-24T03:07:06.808Z,90.60
2017-09-24T03:09:34.449Z,93.83
2017-09-24T03:12:02.689Z,93.03
2017-09-24T03:14:30.154Z,98.53
2017-09-24T03:16:57.704Z,86.87
2017-09-24T03:19:25.165Z,98.03
2017-09-24T03:21:52.648Z,91.63
2017-09-24T03:24:20.892Z,97.93
2017-09-24T03:26:48.457Z,98.13
2017-09-24T03:29:15.944Z,75.00
2017-09-24T03:31:44.193Z,109.60
2017-09-24T03:34:11.674Z,97.27
2017-09-24T03:36:39.916Z,90.83
2017-09-24T03:39:07.486Z,93.07
2017-09-24T03:41:34.953Z,88.10
2017-09-24T03:44:02.611Z,92.73
2017-09-24T03:46:31.589Z,101.43
2017-09-24T03:48:59.071Z,93.57
2017-09-24T03:51:26.528Z,81.77
2017-09-24T03:53:54.897Z,79.70
2017-09-24T03:56:22.376Z,84.53
2017-09-24T03:58:50.625Z,97.30
2017-09-24T04:01:18.108Z,99.00
2017-09-24T04:03:46.341Z,97.10
2017-09-24T04:06:13.818Z,88.33
2017-09-24T04:08:41.394Z,101.17
2017-09-24T04:11:09.649Z,103.43
2017-09-24T04:13:37.127Z,103.33
2017-09-24T04:16:05.382Z,87.73
2017-09-24T04:18:32.845Z,99.97
2017-09-24T04:21:01.077Z,88.93
2017-09-24T04:23:28.570Z,101.23
2017-09-24T04:25:56.034Z,96.10
2017-09-24T04:28:23.516Z,84.47
2017-09-24T04:30:51.010Z,100.00
2017-09-24T04:33:18.484Z,87.33
2017-09-24T04:35:45.959Z,99.90
2017-09-24T04:38:13.445Z,85.60
2017-09-24T04:40:41.670Z,84.20
2017-09-24T04:43:09.173Z,88.97
2017-09-24T04:45:36.637Z,77.50
2017-09-24T04:48:04.107Z,87.60
2017-09-24T04:50:31.582Z,96.37
2017-09-24T04:52:59.075Z,91.70
2017-09-24T04:55:26.552Z,91.70
2017-09-24T04:57:54.797Z,78.57
2017-09-24T05:00:22.345Z,82.77
2017-09-24T05:02:49.809Z,72.27
2017-09-24T05:05:18.080Z,82.93
2017-09-24T05:07:45.549Z,76.70
2017-09-24T05:10:13.041Z,67.97
2017-09-24T05:12:41.278Z,66.37
2017-09-24T05:15:08.762Z,72.97
2017-09-24T05:17:37.005Z,70.60
2017-09-24T05:20:04.493Z,88.43
2017-09-24T05:22:32.733Z,92.53
2017-09-24T05:25:00.202Z,89.97
2017-09-24T05:27:27.677Z,92.50
2017-09-24T05:29:56.046Z,87.93
2017-09-24T05:32:23.518Z,83.97
2017-09-24T05:34:51.769Z,86.57
2017-09-24T05:37:20.030Z,80.53
2017-09-24T05:39:47.505Z,87.30
2017-09-24T05:42:14.990Z,72.67
2017-09-24T05:44:42.477Z,75.10
2017-09-24T05:47:09.936Z,70.67
2017-09-24T05:49:37.410Z,74.17
2017-09-24T05:52:04.890Z,75.40
2017-09-24T05:54:32.372Z,66.13
2017-09-24T05:57:00.613Z,58.40
2017-09-24T05:59:28.085Z,57.80
2017-09-24T06:01:55.561Z,57.33
2017-09-24T06:04:23.023Z,53.13
2017-09-24T06:06:50.506Z,73.13
2017-09-24T06:09:18.059Z,84.33
2017-09-24T06:11:45.545Z,166.13
2017-09-24T06:14:13.025Z,125.53
2017-09-24T06:16:40.506Z,155.00
2017-09-24T06:19:08.758Z,80.50
2017-09-24T06:21:36.239Z,102.37
2017-09-24T06:24:04.469Z,60.13
2017-09-24T06:26:31.948Z,51.40
2017-09-24T06:29:00.196Z,50.50
2017-09-24T06:31:27.689Z,58.03
2017-09-24T06:33:55.956Z,56.27
2017-09-24T06:36:24.202Z,55.07
2017-09-24T06:38:51.684Z,51.87
2017-09-24T06:41:19.175Z,80.70
2017-09-24T06:43:46.665Z,171.80
2017-09-24T06:46:14.165Z,144.03
2017-09-24T06:48:43.213Z,58.13
2017-09-24T06:51:10.702Z,110.13
2017-09-24T06:53:38.173Z,52.53
2017-09-24T06:56:06.406Z,99.83
2017-09-24T06:58:33.885Z,66.73
2017-09-24T07:01:01.357Z,44.70
2017-09-24T07:03:28.833Z,37.77
2017-09-24T07:05:57.061Z,40.53
2017-09-24T07:08:24.545Z,45.13
2017-09-24T07:10:52.789Z,48.23
2017-09-24T07:13:20.261Z,40.80
2017-09-24T07:15:47.738Z,39.57
2017-09-24T07:18:15.970Z,45.77
2017-09-24T07:20:43.575Z,42.93
2017-09-24T07:23:11.805Z,47.47
2017-09-24T07:25:39.292Z,39.33
2017-09-24T07:28:06.760Z,47.00
2017-09-24T07:30:35.017Z,40.77
2017-09-24T07:33:02.508Z,42.93
2017-09-24T07:35:30.733Z,44.60
2017-09-24T07:37:58.195Z,46.93
2017-09-24T07:40:25.673Z,53.73
2017-09-24T07:42:53.230Z,61.50
2017-09-24T07:45:20.697Z,54.40
2017-09-24T07:47:48.932Z,50.67
2017-09-24T07:50:16.409Z,48.30
2017-09-24T07:52:43.872Z,54.90
2017-09-24T07:55:11.343Z,54.10
2017-09-24T07:57:39.573Z,59.97
2017-09-24T08:00:07.049Z,53.10
2017-09-24T08:02:34.579Z,60.60
2017-09-24T08:05:02.061Z,56.07
2017-09-24T08:07:29.534Z,53.53
2017-09-24T08:09:57.005Z,51.07
2017-09-24T08:12:25.250Z,50.47
2017-09-24T08:14:52.801Z,53.63
2017-09-24T08:17:20.498Z,55.30
2017-09-24T08:19:48.737Z,59.37
2017-09-24T08:22:16.216Z,56.47
2017-09-24T08:24:43.696Z,48.80
2017-09-24T08:27:12.096Z,53.93
2017-09-24T08:29:39.574Z,55.30
2017-09-24T08:32:07.161Z,59.90
2017-09-24T08:34:35.764Z,57.97
2017-09-24T08:37:04.045Z,63.80
2017-09-24T08:39:32.357Z,67.43
2017-09-24T08:41:59.825Z,55.10
2017-09-24T08:44:27.327Z,56.23
2017-09-24T08:46:55.576Z,53.53
2017-09-24T08:49:23.053Z,56.07
2017-09-24T08:51:50.541Z,57.33
2017-09-24T08:54:18.769Z,57.13
2017-09-24T08:56:46.346Z,55.53
2017-09-24T08:59:13.910Z,57.67
2017-09-24T09:01:41.389Z,56.00
2017-09-24T09:04:09.630Z,59.17
2017-09-24T09:06:38.609Z,58.40
2017-09-24T09:09:06.094Z,56.97
2017-09-24T09:11:34.773Z,58.10
2017-09-24T09:14:03.041Z,59.67
2017-09-24T09:16:30.511Z,57.00
2017-09-24T09:18:58.758Z,64.93
2017-09-24T09:21:38.087Z,62.87
2017-09-24T09:24:05.569Z,66.27
2017-09-24T09:26:33.045Z,61.10
2017-09-24T09:29:01.290Z,76.43
2017-09-24T09:31:28.771Z,63.00
2017-09-24T09:33:57.018Z,65.50
2017-09-24T09:36:24.509Z,62.57
2017-09-24T09:38:52.744Z,67.07
2017-09-24T09:41:20.229Z,62.23
2017-09-24T09:43:48.535Z,58.53
2017-09-24T09:46:27.933Z,60.20
2017-09-24T09:48:55.414Z,56.13
2017-09-24T09:51:23.677Z,60.70
2017-09-24T09:53:51.135Z,58.60
2017-09-24T09:56:19.365Z,63.60
2017-09-24T09:58:46.852Z,66.07
2017-09-24T10:01:14.397Z,62.10
2017-09-24T10:03:42.071Z,61.00
2017-09-24T10:06:09.584Z,67.77
2017-09-24T10:08:49.062Z,60.20
2017-09-24T10:11:16.560Z,66.50
2017-09-24T10:13:44.040Z,75.90
2017-09-24T10:16:11.549Z,76.07
2017-09-24T10:18:39.792Z,81.13
2017-09-24T10:21:07.265Z,84.43
2017-09-24T10:23:34.734Z,86.43
2017-09-24T10:26:02.233Z,101.90
2017-09-24T10:28:41.286Z,90.70
2017-09-24T10:31:08.787Z,97.43
2017-09-24T10:33:37.023Z,79.67
2017-09-24T10:36:04.518Z,86.17
2017-09-24T10:38:31.966Z,81.00
2017-09-24T10:40:59.449Z,84.83
2017-09-24T10:43:27.693Z,78.53
2017-09-24T10:45:55.936Z,89.67
2017-09-24T10:48:23.480Z,91.93
2017-09-24T10:50:50.973Z,90.40
2017-09-24T10:53:18.445Z,101.63
2017-09-24T10:55:45.956Z,105.77
2017-09-24T10:58:14.141Z,109.27
2017-09-24T11:00:41.628Z,105.00
2017-09-24T11:03:09.095Z,95.57
2017-09-24T11:05:37.366Z,108.17
2017-09-24T11:08:04.839Z,88.40
2017-09-24T11:10:33.075Z,91.53
2017-09-24T11:13:00.553Z,77.70
2017-09-24T11:15:28.048Z,83.20
2017-09-24T11:17:55.615Z,67.67
2017-09-24T11:20:23.087Z,68.87
2017-09-24T11:22:50.554Z,65.50
2017-09-24T11:25:18.018Z,67.80
2017-09-24T11:27:45.515Z,65.13
2017-09-24T11:30:13.761Z,64.20
2017-09-24T11:32:41.252Z,58.13
2017-09-24T11:35:09.489Z,59.03
2017-09-24T11:37:36.973Z,52.13
2017-09-24T11:40:05.223Z,54.90
2017-09-24T11:42:32.695Z,50.73
2017-09-24T11:45:00.922Z,52.50
2017-09-24T11:47:28.405Z,50.43
2017-09-24T11:49:55.949Z,48.30
2017-09-24T11:52:24.362Z,45.33
2017-09-24T11:54:51.901Z,39.60
2017-09-24T11:57:19.566Z,42.93
2017-09-24T11:59:47.205Z,42.77
2017-09-24T12:02:14.726Z,42.00
2017-09-24T12:04:42.962Z,40.97
2017-09-24T12:07:10.438Z,36.90
2017-09-24T12:09:37.917Z,37.60
2017-09-24T12:12:05.398Z,42.70
2017-09-24T12:14:32.878Z,36.63
2017-09-24T12:17:00.537Z,35.70
2017-09-24T12:19:28.025Z,36.20
2017-09-24T12:21:55.493Z,36.07
2017-09-24T12:24:23.729Z,32.17
2017-09-24T12:26:51.206Z,33.90
2017-09-24T12:29:18.674Z,34.73
2017-09-24T12:31:46.923Z,33.13
2017-09-24T12:34:14.381Z,30.17
2017-09-24T12:36:42.032Z,33.13
2017-09-24T12:39:09.492Z,33.43
2017-09-24T12:41:37.008Z,29.73
2017-09-24T12:44:04.502Z,29.27
2017-09-24T12:46:31.981Z,27.93
2017-09-24T12:48:59.545Z,23.73
2017-09-24T12:51:27.776Z,27.60
2017-09-24T12:53:55.257Z,25.60
2017-09-24T12:56:23.226Z,23.23
2017-09-24T12:58:50.760Z,19.93
2017-09-24T13:01:18.247Z,16.90
2017-09-24T13:03:45.742Z,19.90
2017-09-24T13:06:14.001Z,22.83
2017-09-24T13:08:41.549Z,19.77
2017-09-24T13:11:09.215Z,23.40
2017-09-24T13:13:36.745Z,19.30
2017-09-24T13:16:04.306Z,18.50
2017-09-24T13:18:31.880Z,19.33
2017-09-24T13:20:59.369Z,17.90
2017-09-24T13:23:27.630Z,18.13
2017-09-24T13:25:55.330Z,15.90
2017-09-24T13:28:22.797Z,17.73
2017-09-24T13:30:50.289Z,18.17
2017-09-24T13:33:17.758Z,19.53
2017-09-24T13:35:45.263Z,17.60
2017-09-24T13:38:12.739Z,14.07
2017-09-24T13:40:40.277Z,16.93
2017-09-24T13:43:07.839Z,14.07
2017-09-24T13:45:35.412Z,13.70
2017-09-24T13:48:03.059Z,11.77
2017-09-24T13:50:31.285Z,12.50
2017-09-24T13:52:59.527Z,12.60
2017-09-24T13:55:27.009Z,9.33
2017-09-24T13:57:54.489Z,12.30
2017-09-24T14:00:22.834Z,14.87
2017-09-24T14:02:50.402Z,12.93
2017-09-24T14:05:17.985Z,13.43
2017-09-24T14:07:45.595Z,13.77
2017-09-24T14:10:13.165Z,13.90
2017-09-24T14:12:40.648Z,14.40
2017-09-24T14:15:08.112Z,14.30
2017-09-24T14:17:35.724Z,14.20
2017-09-24T14:20:03.343Z,11.77
2017-09-24T14:22:31.636Z,14.10
2017-09-24T14:24:59.109Z,12.97
2017-09-24T14:27:26.589Z,14.30
2017-09-24T14:29:54.082Z,13.77
2017-09-24T14:32:21.553Z,14.90
2017-09-24T14:34:49.813Z,12.43
2017-09-24T14:37:18.032Z,15.10
2017-09-24T14:39:45.512Z,15.70
2017-09-24T14:42:13.007Z,14.07
2017-09-24T14:44:41.225Z,14.53
2017-09-24T14:47:08.685Z,14.40
2017-09-24T14:49:36.160Z,14.33
2017-09-24T14:52:03.708Z,14.20
2017-09-24T14:54:31.205Z,15.33
2017-09-24T14:57:19.722Z,15.53
2017-09-24T14:59:51.133Z,16.43
2017-09-24T15:02:18.632Z,17.00
2017-09-24T15:04:46.463Z,20.70
2017-09-24T15:07:14.054Z,12.60
2017-09-24T15:09:41.541Z,14.10
2017-09-24T15:12:09.865Z,13.70
2017-09-24T15:14:37.394Z,14.10
2017-09-24T15:17:04.889Z,15.93
2017-09-24T15:19:32.424Z,16.80
2017-09-24T15:21:59.892Z,18.13
2017-09-24T15:24:27.373Z,18.50
2017-09-24T15:26:55.046Z,18.83
2017-09-24T15:29:23.145Z,19.47
2017-09-24T15:31:51.381Z,19.73
2017-09-24T15:34:18.859Z,20.63
2017-09-24T15:36:46.331Z,17.20
2017-09-24T15:39:14.579Z,14.83
2017-09-24T15:41:42.058Z,17.00
2017-09-24T15:44:10.313Z,14.97
2017-09-24T15:46:37.799Z,19.43
2017-09-24T15:49:06.178Z,16.20
2017-09-24T15:51:34.430Z,18.60
2017-09-24T15:54:01.934Z,25.60
2017-09-24T15:56:29.408Z,21.00
2017-09-24T15:58:56.906Z,18.13
2017-09-24T16:01:24.367Z,22.07
2017-09-24T16:03:51.849Z,26.30
2017-09-24T16:06:19.315Z,29.13
2017-09-24T16:08:46.821Z,26.27
2017-09-24T16:11:14.301Z,24.07
2017-09-24T16:13:41.921Z,27.80
2017-09-24T16:16:09.424Z,27.60
2017-09-24T16:18:37.664Z,27.13
2017-09-24T16:21:05.158Z,27.00
2017-09-24T16:23:33.393Z,32.17
2017-09-24T16:26:01.362Z,29.10
2017-09-24T16:28:28.844Z,27.53
2017-09-24T16:30:56.323Z,25.57
2017-09-24T16:33:24.573Z,26.83
2017-09-24T16:35:52.126Z,32.40
2017-09-24T16:38:19.600Z,28.13
2017-09-24T16:40:47.832Z,25.70
2017-09-24T16:43:15.309Z,27.83
2017-09-24T16:45:42.785Z,30.20
2017-09-24T16:48:10.285Z,28.77
2017-09-24T16:50:37.766Z,32.87
2017-09-24T16:53:05.241Z,30.30
2017-09-24T16:55:32.774Z,27.20
2017-09-24T16:58:00.240Z,29.40
2017-09-24T17:00:27.716Z,28.77
2017-09-24T17:02:55.186Z,31.27
2017-09-24T17:05:22.665Z,35.67
2017-09-24T17:07:50.897Z,34.03
2017-09-24T17:10:18.392Z,30.40
2017-09-24T17:12:46.633Z,29.17
2017-09-24T17:15:14.134Z,31.53
2017-09-24T17:17:41.628Z,29.87
2017-09-24T17:20:09.089Z,34.83
2017-09-24T17:22:36.570Z,31.00
2017-09-24T17:25:04.034Z,29.53
2017-09-24T17:27:31.577Z,32.70
2017-09-24T17:30:00.545Z,30.20
2017-09-24T17:32:28.020Z,30.70
2017-09-24T17:34:55.650Z,28.10
2017-09-24T17:37:23.131Z,28.33
2017-09-24T17:39:50.614Z,28.73
2017-09-24T17:42:18.096Z,28.03
2017-09-24T17:44:45.717Z,28.03
2017-09-24T17:47:14.710Z,28.83
2017-09-24T17:49:42.181Z,30.87
2017-09-24T17:52:10.799Z,25.43
2017-09-24T17:54:38.281Z,24.57
2017-09-24T17:57:05.766Z,28.47
2017-09-24T17:59:34.750Z,29.60
2017-09-24T18:02:02.238Z,26.50
2017-09-24T18:04:29.697Z,27.70
2017-09-24T18:06:57.957Z,26.27
2017-09-24T18:09:25.425Z,24.80
2017-09-24T18:11:53.674Z,28.10
2017-09-24T18:14:21.150Z,30.50
2017-09-24T18:16:48.611Z,26.47
2017-09-24T18:19:16.086Z,27.23
2017-09-24T18:21:44.345Z,28.93
2017-09-24T18:24:12.583Z,32.67
2017-09-24T18:26:40.057Z,30.00
2017-09-24T18:29:07.542Z,30.20
2017-09-24T18:31:36.015Z,32.03
2017-09-24T18:34:04.239Z,27.77
2017-09-24T18:36:31.725Z,28.23
2017-09-24T18:38:59.213Z,28.50
2017-09-24T18:41:27.441Z,27.00
2017-09-24T18:43:54.944Z,26.97
2017-09-24T18:46:23.177Z,28.70
2017-09-24T18:48:50.655Z,31.30
2017-09-24T18:51:18.150Z,28.30
2017-09-24T18:53:45.617Z,29.00
2017-09-24T18:56:13.150Z,28.13
2017-09-24T18:58:41.381Z,26.10
2017-09-24T19:01:08.879Z,26.07
2017-09-24T19:03:37.100Z,32.13
2017-09-24T19:06:04.595Z,30.47
2017-09-24T19:08:32.072Z,29.90
2017-09-24T19:11:00.316Z,27.20
2017-09-24T19:13:27.812Z,28.23
2017-09-24T19:15:56.045Z,31.37
2017-09-24T19:18:23.531Z,31.30
2017-09-24T19:20:51.857Z,35.13
2017-09-24T19:23:19.313Z,28.30
2017-09-24T19:25:46.854Z,30.23
2017-09-24T19:28:14.359Z,29.60
2017-09-24T19:30:42.673Z,28.13
2017-09-24T19:33:10.160Z,32.00
2017-09-24T19:35:37.658Z,30.07
2017-09-24T19:38:05.793Z,34.37
2017-09-24T19:40:33.354Z,29.20
2017-09-24T19:43:00.972Z,29.90
2017-09-24T19:45:29.270Z,33.07
2017-09-24T19:47:56.794Z,27.57
2017-09-24T19:50:25.030Z,26.67
2017-09-24T19:52:52.647Z,26.83
2017-09-24T19:55:20.123Z,28.63
2017-09-24T19:57:48.200Z,36.30
2017-09-24T20:00:15.662Z,31.23
2017-09-24T20:02:44.083Z,29.30
2017-09-24T20:05:11.654Z,30.67
2017-09-24T20:07:39.929Z,29.43
2017-09-24T20:10:08.292Z,27.33
2017-09-24T20:12:35.761Z,28.57
2017-09-24T20:15:04.003Z,27.00
2017-09-24T20:17:31.465Z,26.80
2017-09-24T20:19:58.962Z,25.13
2017-09-24T20:22:27.201Z,26.23
2017-09-24T20:24:54.694Z,29.43
2017-09-24T20:27:22.931Z,24.53
2017-09-24T20:29:50.389Z,26.47
2017-09-24T20:32:18.647Z,23.80
2017-09-24T20:34:46.130Z,27.10
2017-09-24T20:37:13.694Z,25.77
2017-09-24T20:39:41.175Z,21.83
2017-09-24T20:42:09.425Z,26.87
2017-09-24T20:44:37.041Z,31.17
2017-09-24T20:47:04.517Z,25.50
2017-09-24T20:49:32.002Z,24.03
2017-09-24T20:52:00.253Z,21.47
2017-09-24T20:54:27.737Z,27.90
2017-09-24T20:56:55.218Z,23.67
2017-09-24T20:59:23.454Z,24.50
2017-09-24T21:01:50.951Z,25.90
2017-09-24T21:04:19.200Z,21.33
2017-09-24T21:06:46.674Z,22.40
2017-09-24T21:09:14.904Z,20.30
2017-09-24T21:11:42.387Z,19.40
2017-09-24T21:14:09.871Z,18.47
2017-09-24T21:16:37.369Z,23.83
2017-09-24T21:19:04.838Z,20.20
2017-09-24T21:21:32.313Z,21.33
2017-09-24T21:24:01.043Z,24.90
2017-09-24T21:26:28.589Z,18.87
2017-09-24T21:28:56.082Z,19.27
2017-09-24T21:31:23.584Z,21.63
2017-09-24T21:33:51.844Z,19.53
2017-09-24T21:36:20.079Z,21.53
2017-09-24T21:38:47.561Z,19.00
2017-09-24T21:41:15.047Z,19.27
2017-09-24T21:43:43.514Z,22.20
2017-09-24T21:46:11.002Z,19.20
2017-09-24T21:48:38.505Z,21.20
2017-09-24T21:51:05.976Z,25.87
2017-09-24T21:53:33.546Z,21.70
2017-09-24T21:56:01.017Z,23.80
2017-09-24T21:58:29.261Z,21.50
2017-09-24T22:00:56.738Z,25.20
2017-09-24T22:03:24.238Z,23.70
2017-09-24T22:05:51.841Z,25.67
2017-09-24T22:08:21.082Z,24.80
2017-09-24T22:10:48.565Z,21.80
2017-09-24T22:13:16.172Z,24.27
2017-09-24T22:15:43.659Z,26.83
2017-09-24T22:18:11.139Z,25.37
2017-09-24T22:20:38.632Z,27.20
2017-09-24T22:23:06.208Z,24.87
2017-09-24T22:25:33.702Z,26.70
2017-09-24T22:28:01.169Z,24.37
2017-09-24T22:30:28.650Z,21.47
2017-09-24T22:32:56.228Z,22.07
2017-09-24T22:35:23.699Z,24.10
2017-09-24T22:37:51.188Z,28.30
2017-09-24T22:40:18.662Z,24.23
2017-09-24T22:42:46.131Z,27.40
2017-09-24T22:45:13.610Z,30.90
2017-09-24T22:47:42.592Z,27.43
2017-09-24T22:50:10.794Z,23.43
2017-09-24T22:52:39.025Z,29.07
2017-09-24T22:55:06.505Z,25.60
2017-09-24T22:57:34.053Z,25.80
2017-09-24T23:00:01.574Z,24.43
2017-09-24T23:02:29.181Z,29.63
2017-09-24T23:04:56.859Z,24.33
2017-09-24T23:07:25.109Z,30.50
2017-09-24T23:09:53.178Z,25.03
2017-09-24T23:12:20.655Z,25.37
2017-09-24T23:14:48.301Z,25.87
2017-09-24T23:17:15.803Z,34.87
2017-09-24T23:19:44.081Z,25.00
2017-09-24T23:22:12.313Z,27.60
2017-09-24T23:24:39.794Z,25.80
2017-09-24T23:27:08.117Z,21.97
2017-09-24T23:29:35.674Z,27.37
2017-09-24T23:32:03.224Z,27.40
2017-09-24T23:34:30.857Z,26.40
2017-09-24T23:36:58.338Z,33.43
2017-09-24T23:39:25.824Z,32.27
2017-09-24T23:41:53.284Z,31.60
2017-09-24T23:44:20.749Z,29.27
2017-09-24T23:46:48.218Z,31.43
2017-09-24T23:49:15.712Z,34.03
2017-09-24T23:51:43.174Z,27.43
2017-09-24T23:54:10.781Z,26.43
2017-09-24T23:56:38.252Z,30.57
2017-09-24T23:59:05.833Z,28.43
